sensor_id;sensor_type;location;lat;lon;timestamp;temperature;humidity
19000;DHT22;9633;50.980;13.850;2024-03-08T00:00:30;-0.90;99.90
19000;DHT22;9633;50.980;13.850;2024-03-08T00:02:06;-0.90;99.90
19000;DHT22;9633;50.980;13.850;2024-03-08T00:03:39;-1.00;99.90
19000;DHT22;9633;50.980;13.850;2024-03-08T00:05:13;-1.00;99.90
19000;DHT22;9633;50.980;13.850;2024-03-08T00:06:46;-1.10;99.90
19000;DHT22;9633;50.980;13.850;2024-03-08T00:08:19;-1.20;99.90
19000;DHT22;9633;50.980;13.850;2024-03-08T00:09:51;-1.20;99.90
19000;DHT22;9633;50.980;13.850;2024-03-08T00:11:24;-1.30;99.90
19000;DHT22;9633;50.980;13.850;2024-03-08T00:12:59;-1.30;99.90
19000;DHT22;9633;50.980;13.850;2024-03-08T00:14:31;-1.40;99.90
19000;DHT22;9633;50.980;13.850;2024-03-08T00:16:05;-1.40;99.90
19000;DHT22;9633;50.980;13.850;2024-03-08T00:17:38;-1.50;99.90
19000;DHT22;9633;50.980;13.850;2024-03-08T00:19:12;-1.50;99.90
19000;DHT22;9633;50.980;13.850;2024-03-08T00:20:45;-1.60;99.90
19000;DHT22;9633;50.980;13.850;2024-03-08T00:22:17;-1.60;99.90
19000;DHT22;9633;50.980;13.850;2024-03-08T00:23:50;-1.50;99.90
19000;DHT22;9633;50.980;13.850;2024-03-08T00:25:23;-1.40;99.90
19000;DHT22;9633;50.980;13.850;2024-03-08T00:26:56;-1.50;99.90
19000;DHT22;9633;50.980;13.850;2024-03-08T00:28:28;-1.50;99.90
19000;DHT22;9633;50.980;13.850;2024-03-08T00:30:02;-1.50;99.90
19000;DHT22;9633;50.980;13.850;2024-03-08T00:31:35;-1.50;99.90
19000;DHT22;9633;50.980;13.850;2024-03-08T00:33:09;-1.60;99.90
19000;DHT22;9633;50.980;13.850;2024-03-08T00:34:42;-1.60;99.90
19000;DHT22;9633;50.980;13.850;2024-03-08T00:36:14;-1.50;99.90
19000;DHT22;9633;50.980;13.850;2024-03-08T00:37:47;-1.40;99.90
19000;DHT22;9633;50.980;13.850;2024-03-08T00:39:19;-1.40;99.90
19000;DHT22;9633;50.980;13.850;2024-03-08T00:40:53;-1.50;99.90
19000;DHT22;9633;50.980;13.850;2024-03-08T00:42:25;-1.50;99.90
19000;DHT22;9633;50.980;13.850;2024-03-08T00:43:58;-1.50;99.90
19000;DHT22;9633;50.980;13.850;2024-03-08T00:45:30;-1.50;99.90
19000;DHT22;9633;50.980;13.850;2024-03-08T00:47:03;-1.50;99.90
19000;DHT22;9633;50.980;13.850;2024-03-08T00:48:37;-1.50;99.90
19000;DHT22;9633;50.980;13.850;2024-03-08T00:50:11;-1.60;99.90
19000;DHT22;9633;50.980;13.850;2024-03-08T00:51:44;-1.60;99.90
19000;DHT22;9633;50.980;13.850;2024-03-08T00:53:16;-1.60;99.90
19000;DHT22;9633;50.980;13.850;2024-03-08T00:54:49;-1.70;99.90
19000;DHT22;9633;50.980;13.850;2024-03-08T00:56:21;-1.70;99.90
19000;DHT22;9633;50.980;13.850;2024-03-08T00:57:56;-1.70;99.90
19000;DHT22;9633;50.980;13.850;2024-03-08T00:59:29;-1.70;99.90
19000;DHT22;9633;50.980;13.850;2024-03-08T01:01:04;-1.80;99.90
19000;DHT22;9633;50.980;13.850;2024-03-08T01:02:37;-1.70;99.90
19000;DHT22;9633;50.980;13.850;2024-03-08T01:04:11;-1.70;99.90
19000;DHT22;9633;50.980;13.850;2024-03-08T01:05:44;-1.70;99.90
19000;DHT22;9633;50.980;13.850;2024-03-08T01:07:17;-1.70;99.90
19000;DHT22;9633;50.980;13.850;2024-03-08T01:08:50;-1.70;99.90
19000;DHT22;9633;50.980;13.850;2024-03-08T01:10:24;-1.70;99.90
19000;DHT22;9633;50.980;13.850;2024-03-08T01:11:57;-1.80;99.90
19000;DHT22;9633;50.980;13.850;2024-03-08T01:13:30;-1.80;99.90
19000;DHT22;9633;50.980;13.850;2024-03-08T01:15:03;-1.80;99.90
19000;DHT22;9633;50.980;13.850;2024-03-08T01:16:35;-1.80;99.90
19000;DHT22;9633;50.980;13.850;2024-03-08T01:18:08;-1.60;99.90
19000;DHT22;9633;50.980;13.850;2024-03-08T01:19:42;-1.50;99.90
19000;DHT22;9633;50.980;13.850;2024-03-08T01:21:16;-1.30;99.90
19000;DHT22;9633;50.980;13.850;2024-03-08T01:22:48;-1.20;99.90
19000;DHT22;9633;50.980;13.850;2024-03-08T01:24:21;-1.10;99.90
19000;DHT22;9633;50.980;13.850;2024-03-08T01:25:53;-1.10;99.90
19000;DHT22;9633;50.980;13.850;2024-03-08T01:27:28;-1.20;99.90
19000;DHT22;9633;50.980;13.850;2024-03-08T01:29:00;-1.30;99.90
19000;DHT22;9633;50.980;13.850;2024-03-08T01:30:34;-1.30;99.90
19000;DHT22;9633;50.980;13.850;2024-03-08T01:32:08;-1.40;99.90
19000;DHT22;9633;50.980;13.850;2024-03-08T01:33:41;-1.50;99.90
19000;DHT22;9633;50.980;13.850;2024-03-08T01:35:15;-1.70;99.90
19000;DHT22;9633;50.980;13.850;2024-03-08T01:36:48;-1.80;99.90
19000;DHT22;9633;50.980;13.850;2024-03-08T01:38:20;-1.80;99.90
19000;DHT22;9633;50.980;13.850;2024-03-08T01:39:53;-1.90;99.90
19000;DHT22;9633;50.980;13.850;2024-03-08T01:41:25;-2.00;99.90
19000;DHT22;9633;50.980;13.850;2024-03-08T01:43:19;-2.10;99.90
19000;DHT22;9633;50.980;13.850;2024-03-08T01:44:52;-2.10;99.90
19000;DHT22;9633;50.980;13.850;2024-03-08T01:46:24;-2.20;99.90
19000;DHT22;9633;50.980;13.850;2024-03-08T01:48:00;-2.20;99.90
19000;DHT22;9633;50.980;13.850;2024-03-08T01:49:32;-2.30;99.90
19000;DHT22;9633;50.980;13.850;2024-03-08T01:51:08;-2.30;99.90
19000;DHT22;9633;50.980;13.850;2024-03-08T01:52:40;-2.30;99.90
19000;DHT22;9633;50.980;13.850;2024-03-08T01:54:14;-2.40;99.90
19000;DHT22;9633;50.980;13.850;2024-03-08T01:55:47;-2.30;99.90
19000;DHT22;9633;50.980;13.850;2024-03-08T01:57:21;-2.30;99.90
19000;DHT22;9633;50.980;13.850;2024-03-08T01:58:53;-2.20;99.90
19000;DHT22;9633;50.980;13.850;2024-03-08T02:00:27;-2.30;99.90
19000;DHT22;9633;50.980;13.850;2024-03-08T02:02:02;-2.30;99.90
19000;DHT22;9633;50.980;13.850;2024-03-08T02:03:35;-2.40;99.90
19000;DHT22;9633;50.980;13.850;2024-03-08T02:05:07;-2.40;99.90
19000;DHT22;9633;50.980;13.850;2024-03-08T02:06:42;-2.50;99.90
19000;DHT22;9633;50.980;13.850;2024-03-08T02:08:14;-2.50;99.90
19000;DHT22;9633;50.980;13.850;2024-03-08T02:09:48;-2.60;99.90
19000;DHT22;9633;50.980;13.850;2024-03-08T02:11:20;-2.60;99.90
19000;DHT22;9633;50.980;13.850;2024-03-08T02:12:53;-2.60;99.90
19000;DHT22;9633;50.980;13.850;2024-03-08T02:14:25;-2.70;99.90
19000;DHT22;9633;50.980;13.850;2024-03-08T02:15:59;-2.70;99.90
19000;DHT22;9633;50.980;13.850;2024-03-08T02:17:32;-2.70;99.90
19000;DHT22;9633;50.980;13.850;2024-03-08T02:19:05;-2.80;99.90
19000;DHT22;9633;50.980;13.850;2024-03-08T02:20:42;-2.80;99.90
19000;DHT22;9633;50.980;13.850;2024-03-08T02:22:15;-2.80;99.90
19000;DHT22;9633;50.980;13.850;2024-03-08T02:23:47;-2.90;99.90
19000;DHT22;9633;50.980;13.850;2024-03-08T02:25:20;-2.90;99.90
19000;DHT22;9633;50.980;13.850;2024-03-08T02:26:52;-2.90;99.90
19000;DHT22;9633;50.980;13.850;2024-03-08T02:28:26;-2.90;99.90
19000;DHT22;9633;50.980;13.850;2024-03-08T02:29:58;-2.90;99.90
19000;DHT22;9633;50.980;13.850;2024-03-08T02:31:31;-2.90;99.90
19000;DHT22;9633;50.980;13.850;2024-03-08T02:33:04;-2.90;99.90
19000;DHT22;9633;50.980;13.850;2024-03-08T02:34:37;-2.90;99.90
19000;DHT22;9633;50.980;13.850;2024-03-08T02:36:11;-2.90;99.90
19000;DHT22;9633;50.980;13.850;2024-03-08T02:37:44;-2.90;99.90
19000;DHT22;9633;50.980;13.850;2024-03-08T02:39:19;-3.00;99.90
19000;DHT22;9633;50.980;13.850;2024-03-08T02:40:53;-3.00;99.90
19000;DHT22;9633;50.980;13.850;2024-03-08T02:42:26;-3.10;99.90
19000;DHT22;9633;50.980;13.850;2024-03-08T02:43:59;-3.10;99.90
19000;DHT22;9633;50.980;13.850;2024-03-08T02:45:31;-3.10;99.90
19000;DHT22;9633;50.980;13.850;2024-03-08T02:47:05;-3.10;99.90
19000;DHT22;9633;50.980;13.850;2024-03-08T02:48:37;-3.00;99.90
19000;DHT22;9633;50.980;13.850;2024-03-08T02:50:11;-3.10;99.90
19000;DHT22;9633;50.980;13.850;2024-03-08T02:51:49;-3.10;99.90
19000;DHT22;9633;50.980;13.850;2024-03-08T02:53:22;-3.20;99.90
19000;DHT22;9633;50.980;13.850;2024-03-08T02:54:54;-3.20;99.90
19000;DHT22;9633;50.980;13.850;2024-03-08T02:56:27;-3.20;99.90
19000;DHT22;9633;50.980;13.850;2024-03-08T02:57:59;-3.20;99.90
19000;DHT22;9633;50.980;13.850;2024-03-08T02:59:33;-3.10;99.90
19000;DHT22;9633;50.980;13.850;2024-03-08T03:01:06;-3.00;99.90
19000;DHT22;9633;50.980;13.850;2024-03-08T03:02:39;-3.00;99.90
19000;DHT22;9633;50.980;13.850;2024-03-08T03:04:11;-2.90;99.90
19000;DHT22;9633;50.980;13.850;2024-03-08T03:05:45;-3.00;99.90
19000;DHT22;9633;50.980;13.850;2024-03-08T03:07:21;-2.90;99.90
19000;DHT22;9633;50.980;13.850;2024-03-08T03:08:53;-2.90;99.90
19000;DHT22;9633;50.980;13.850;2024-03-08T03:10:29;-2.90;99.90
19000;DHT22;9633;50.980;13.850;2024-03-08T03:12:01;-2.90;99.90
19000;DHT22;9633;50.980;13.850;2024-03-08T03:13:34;-2.90;99.90
19000;DHT22;9633;50.980;13.850;2024-03-08T03:15:06;-2.90;99.90
19000;DHT22;9633;50.980;13.850;2024-03-08T03:16:39;-2.80;99.90
19000;DHT22;9633;50.980;13.850;2024-03-08T03:18:12;-2.70;99.90
19000;DHT22;9633;50.980;13.850;2024-03-08T03:19:45;-2.50;99.90
19000;DHT22;9633;50.980;13.850;2024-03-08T03:21:18;-2.40;99.90
19000;DHT22;9633;50.980;13.850;2024-03-08T03:22:52;-2.30;99.90
19000;DHT22;9633;50.980;13.850;2024-03-08T03:24:24;-2.20;99.90
19000;DHT22;9633;50.980;13.850;2024-03-08T03:26:01;-2.10;99.90
19000;DHT22;9633;50.980;13.850;2024-03-08T03:27:34;-2.00;99.90
19000;DHT22;9633;50.980;13.850;2024-03-08T03:29:07;-2.00;99.90
19000;DHT22;9633;50.980;13.850;2024-03-08T03:30:40;-1.90;99.90
19000;DHT22;9633;50.980;13.850;2024-03-08T03:32:14;-1.90;99.90
19000;DHT22;9633;50.980;13.850;2024-03-08T03:33:46;-1.90;99.90
19000;DHT22;9633;50.980;13.850;2024-03-08T03:35:20;-1.90;99.90
19000;DHT22;9633;50.980;13.850;2024-03-08T03:36:52;-1.90;99.90
19000;DHT22;9633;50.980;13.850;2024-03-08T03:38:28;-1.80;99.90
19000;DHT22;9633;50.980;13.850;2024-03-08T03:40:02;-1.90;99.90
19000;DHT22;9633;50.980;13.850;2024-03-08T03:41:35;-1.90;99.90
19000;DHT22;9633;50.980;13.850;2024-03-08T03:43:08;-1.90;99.90
19000;DHT22;9633;50.980;13.850;2024-03-08T03:44:44;-1.90;99.90
19000;DHT22;9633;50.980;13.850;2024-03-08T03:46:17;-2.00;99.90
19000;DHT22;9633;50.980;13.850;2024-03-08T03:47:50;-2.10;99.90
19000;DHT22;9633;50.980;13.850;2024-03-08T03:49:23;-2.20;99.90
19000;DHT22;9633;50.980;13.850;2024-03-08T03:50:56;-2.20;99.90
19000;DHT22;9633;50.980;13.850;2024-03-08T03:52:29;-2.20;99.90
19000;DHT22;9633;50.980;13.850;2024-03-08T03:54:03;-2.20;99.90
19000;DHT22;9633;50.980;13.850;2024-03-08T03:55:36;-2.30;99.90
19000;DHT22;9633;50.980;13.850;2024-03-08T03:57:10;-2.30;99.90
19000;DHT22;9633;50.980;13.850;2024-03-08T03:58:44;-2.20;99.90
19000;DHT22;9633;50.980;13.850;2024-03-08T04:00:16;-2.10;99.90
19000;DHT22;9633;50.980;13.850;2024-03-08T04:01:50;-2.00;99.90
19000;DHT22;9633;50.980;13.850;2024-03-08T04:03:22;-2.00;99.90
19000;DHT22;9633;50.980;13.850;2024-03-08T04:04:55;-1.90;99.90
19000;DHT22;9633;50.980;13.850;2024-03-08T04:06:28;-2.00;99.90
19000;DHT22;9633;50.980;13.850;2024-03-08T04:08:01;-2.00;99.90
19000;DHT22;9633;50.980;13.850;2024-03-08T04:09:36;-2.00;99.90
19000;DHT22;9633;50.980;13.850;2024-03-08T04:11:09;-2.00;99.90
19000;DHT22;9633;50.980;13.850;2024-03-08T04:12:42;-2.00;99.90
19000;DHT22;9633;50.980;13.850;2024-03-08T04:14:14;-2.10;99.90
19000;DHT22;9633;50.980;13.850;2024-03-08T04:15:47;-2.10;99.90
19000;DHT22;9633;50.980;13.850;2024-03-08T04:17:21;-2.00;99.90
19000;DHT22;9633;50.980;13.850;2024-03-08T04:18:55;-2.00;99.90
19000;DHT22;9633;50.980;13.850;2024-03-08T04:20:27;-1.90;99.90
19000;DHT22;9633;50.980;13.850;2024-03-08T04:22:00;-1.90;99.90
19000;DHT22;9633;50.980;13.850;2024-03-08T04:23:33;-1.80;99.90
19000;DHT22;9633;50.980;13.850;2024-03-08T04:25:09;-1.80;99.90
19000;DHT22;9633;50.980;13.850;2024-03-08T04:26:41;-1.90;99.90
19000;DHT22;9633;50.980;13.850;2024-03-08T04:28:14;-1.90;99.90
19000;DHT22;9633;50.980;13.850;2024-03-08T04:29:46;-1.90;99.90
19000;DHT22;9633;50.980;13.850;2024-03-08T04:31:19;-1.90;99.90
19000;DHT22;9633;50.980;13.850;2024-03-08T04:32:51;-1.80;99.90
19000;DHT22;9633;50.980;13.850;2024-03-08T04:34:24;-1.80;99.90
19000;DHT22;9633;50.980;13.850;2024-03-08T04:35:59;-1.90;99.90
19000;DHT22;9633;50.980;13.850;2024-03-08T04:37:33;-1.90;99.90
19000;DHT22;9633;50.980;13.850;2024-03-08T04:39:06;-2.00;99.90
19000;DHT22;9633;50.980;13.850;2024-03-08T04:40:43;-2.10;99.90
19000;DHT22;9633;50.980;13.850;2024-03-08T04:42:16;-2.20;99.90
19000;DHT22;9633;50.980;13.850;2024-03-08T04:43:50;-2.10;99.90
19000;DHT22;9633;50.980;13.850;2024-03-08T04:45:23;-2.10;99.90
19000;DHT22;9633;50.980;13.850;2024-03-08T04:46:57;-2.10;99.90
19000;DHT22;9633;50.980;13.850;2024-03-08T04:48:31;-2.20;99.90
19000;DHT22;9633;50.980;13.850;2024-03-08T04:50:04;-2.20;99.90
19000;DHT22;9633;50.980;13.850;2024-03-08T04:51:37;-2.30;99.90
19000;DHT22;9633;50.980;13.850;2024-03-08T04:53:09;-2.30;99.90
19000;DHT22;9633;50.980;13.850;2024-03-08T04:54:43;-2.30;99.90
19000;DHT22;9633;50.980;13.850;2024-03-08T04:56:17;-2.20;99.90
19000;DHT22;9633;50.980;13.850;2024-03-08T04:57:51;-2.20;99.90
19000;DHT22;9633;50.980;13.850;2024-03-08T04:59:23;-2.20;99.90
19000;DHT22;9633;50.980;13.850;2024-03-08T05:00:56;-2.30;99.90
19000;DHT22;9633;50.980;13.850;2024-03-08T05:02:28;-2.20;99.90
19000;DHT22;9633;50.980;13.850;2024-03-08T05:04:01;-2.30;99.90
19000;DHT22;9633;50.980;13.850;2024-03-08T05:05:37;-2.40;99.90
19000;DHT22;9633;50.980;13.850;2024-03-08T05:07:10;-2.50;99.90
19000;DHT22;9633;50.980;13.850;2024-03-08T05:08:42;-2.50;99.90
19000;DHT22;9633;50.980;13.850;2024-03-08T05:10:15;-2.50;99.90
19000;DHT22;9633;50.980;13.850;2024-03-08T05:11:51;-2.50;99.90
19000;DHT22;9633;50.980;13.850;2024-03-08T05:13:24;-2.50;99.90
19000;DHT22;9633;50.980;13.850;2024-03-08T05:14:56;-2.60;99.90
19000;DHT22;9633;50.980;13.850;2024-03-08T05:16:29;-2.70;99.90
19000;DHT22;9633;50.980;13.850;2024-03-08T05:18:01;-2.70;99.90
19000;DHT22;9633;50.980;13.850;2024-03-08T05:19:36;-2.80;99.90
19000;DHT22;9633;50.980;13.850;2024-03-08T05:21:08;-2.90;99.90
19000;DHT22;9633;50.980;13.850;2024-03-08T05:22:42;-2.90;99.90
19000;DHT22;9633;50.980;13.850;2024-03-08T05:24:14;-2.80;99.90
19000;DHT22;9633;50.980;13.850;2024-03-08T05:25:48;-2.60;99.90
19000;DHT22;9633;50.980;13.850;2024-03-08T05:27:21;-2.60;99.90
19000;DHT22;9633;50.980;13.850;2024-03-08T05:28:54;-2.60;99.90
19000;DHT22;9633;50.980;13.850;2024-03-08T05:30:28;-2.70;99.90
19000;DHT22;9633;50.980;13.850;2024-03-08T05:32:01;-2.80;99.90
19000;DHT22;9633;50.980;13.850;2024-03-08T05:33:34;-2.80;99.90
19000;DHT22;9633;50.980;13.850;2024-03-08T05:35:08;-2.80;99.90
19000;DHT22;9633;50.980;13.850;2024-03-08T05:36:42;-2.70;99.90
19000;DHT22;9633;50.980;13.850;2024-03-08T05:38:16;-2.80;99.90
19000;DHT22;9633;50.980;13.850;2024-03-08T05:39:48;-2.70;99.90
19000;DHT22;9633;50.980;13.850;2024-03-08T05:41:21;-2.60;99.90
19000;DHT22;9633;50.980;13.850;2024-03-08T05:42:54;-2.40;99.90
19000;DHT22;9633;50.980;13.850;2024-03-08T05:44:27;-2.30;99.90
19000;DHT22;9633;50.980;13.850;2024-03-08T05:46:00;-2.30;99.90
19000;DHT22;9633;50.980;13.850;2024-03-08T05:47:34;-2.30;99.90
19000;DHT22;9633;50.980;13.850;2024-03-08T05:49:07;-2.30;99.90
19000;DHT22;9633;50.980;13.850;2024-03-08T05:50:43;-2.10;99.90
19000;DHT22;9633;50.980;13.850;2024-03-08T05:52:15;-2.00;99.90
19000;DHT22;9633;50.980;13.850;2024-03-08T05:53:48;-2.00;99.90
19000;DHT22;9633;50.980;13.850;2024-03-08T05:55:21;-2.00;99.90
19000;DHT22;9633;50.980;13.850;2024-03-08T05:56:56;-2.00;99.90
19000;DHT22;9633;50.980;13.850;2024-03-08T05:58:29;-2.00;99.90
19000;DHT22;9633;50.980;13.850;2024-03-08T06:00:03;-1.90;99.90
19000;DHT22;9633;50.980;13.850;2024-03-08T06:01:43;-1.80;99.90
19000;DHT22;9633;50.980;13.850;2024-03-08T06:03:17;-1.80;99.90
19000;DHT22;9633;50.980;13.850;2024-03-08T06:04:53;-1.70;99.90
19000;DHT22;9633;50.980;13.850;2024-03-08T06:06:27;-1.60;99.90
19000;DHT22;9633;50.980;13.850;2024-03-08T06:07:59;-1.40;99.90
19000;DHT22;9633;50.980;13.850;2024-03-08T06:09:32;-1.10;99.90
19000;DHT22;9633;50.980;13.850;2024-03-08T06:11:04;-0.70;99.90
19000;DHT22;9633;50.980;13.850;2024-03-08T06:12:37;-0.30;99.90
19000;DHT22;9633;50.980;13.850;2024-03-08T06:14:13;0.10;99.90
19000;DHT22;9633;50.980;13.850;2024-03-08T06:15:50;0.60;99.90
19000;DHT22;9633;50.980;13.850;2024-03-08T06:17:22;1.10;99.90
19000;DHT22;9633;50.980;13.850;2024-03-08T06:18:57;1.50;99.90
19000;DHT22;9633;50.980;13.850;2024-03-08T06:20:29;1.80;99.90
19000;DHT22;9633;50.980;13.850;2024-03-08T06:22:03;2.10;94.70
19000;DHT22;9633;50.980;13.850;2024-03-08T06:23:37;2.50;71.10
19000;DHT22;9633;50.980;13.850;2024-03-08T06:25:11;2.70;44.40
19000;DHT22;9633;50.980;13.850;2024-03-08T06:26:46;2.90;32.40
19000;DHT22;9633;50.980;13.850;2024-03-08T06:28:19;3.10;24.10
19000;DHT22;9633;50.980;13.850;2024-03-08T06:29:52;3.30;13.20
19000;DHT22;9633;50.980;13.850;2024-03-08T06:31:25;3.50;1.00
19000;DHT22;9633;50.980;13.850;2024-03-08T06:32:58;3.80;1.00
19000;DHT22;9633;50.980;13.850;2024-03-08T06:34:32;3.80;1.00
19000;DHT22;9633;50.980;13.850;2024-03-08T06:36:06;4.10;1.00
19000;DHT22;9633;50.980;13.850;2024-03-08T06:37:39;4.10;1.00
19000;DHT22;9633;50.980;13.850;2024-03-08T06:39:14;4.30;1.00
19000;DHT22;9633;50.980;13.850;2024-03-08T06:40:46;4.60;1.00
19000;DHT22;9633;50.980;13.850;2024-03-08T06:42:19;4.90;1.00
19000;DHT22;9633;50.980;13.850;2024-03-08T06:43:52;5.20;1.00
19000;DHT22;9633;50.980;13.850;2024-03-08T06:45:30;5.60;1.00
19000;DHT22;9633;50.980;13.850;2024-03-08T06:47:03;5.60;1.00
19000;DHT22;9633;50.980;13.850;2024-03-08T06:48:37;5.70;1.00
19000;DHT22;9633;50.980;13.850;2024-03-08T06:50:10;5.60;1.00
19000;DHT22;9633;50.980;13.850;2024-03-08T06:51:43;5.40;1.00
19000;DHT22;9633;50.980;13.850;2024-03-08T06:53:15;5.50;1.00
19000;DHT22;9633;50.980;13.850;2024-03-08T06:54:54;5.40;1.00
19000;DHT22;9633;50.980;13.850;2024-03-08T06:56:26;5.20;1.00
19000;DHT22;9633;50.980;13.850;2024-03-08T06:57:59;4.80;1.00
19000;DHT22;9633;50.980;13.850;2024-03-08T06:59:32;4.70;1.00
19000;DHT22;9633;50.980;13.850;2024-03-08T07:01:08;4.60;1.00
19000;DHT22;9633;50.980;13.850;2024-03-08T07:02:46;4.50;1.00
19000;DHT22;9633;50.980;13.850;2024-03-08T07:04:20;4.40;1.00
19000;DHT22;9633;50.980;13.850;2024-03-08T07:05:56;4.30;1.00
19000;DHT22;9633;50.980;13.850;2024-03-08T07:07:30;4.40;1.00
19000;DHT22;9633;50.980;13.850;2024-03-08T07:09:02;4.50;1.00
19000;DHT22;9633;50.980;13.850;2024-03-08T07:10:35;4.60;1.00
19000;DHT22;9633;50.980;13.850;2024-03-08T07:12:08;4.70;1.00
19000;DHT22;9633;50.980;13.850;2024-03-08T07:13:41;4.80;1.00
19000;DHT22;9633;50.980;13.850;2024-03-08T07:15:15;5.10;1.00
19000;DHT22;9633;50.980;13.850;2024-03-08T07:16:52;5.40;1.00
19000;DHT22;9633;50.980;13.850;2024-03-08T07:18:24;5.60;1.00
19000;DHT22;9633;50.980;13.850;2024-03-08T07:20:00;5.80;1.00
19000;DHT22;9633;50.980;13.850;2024-03-08T07:21:38;5.90;1.00
19000;DHT22;9633;50.980;13.850;2024-03-08T07:23:11;5.90;1.00
19000;DHT22;9633;50.980;13.850;2024-03-08T07:25:05;6.00;1.00
19000;DHT22;9633;50.980;13.850;2024-03-08T07:26:51;6.10;1.00
19000;DHT22;9633;50.980;13.850;2024-03-08T07:28:24;6.40;1.00
19000;DHT22;9633;50.980;13.850;2024-03-08T07:29:57;6.40;1.00
19000;DHT22;9633;50.980;13.850;2024-03-08T07:31:32;6.80;1.00
19000;DHT22;9633;50.980;13.850;2024-03-08T07:33:18;7.10;1.00
19000;DHT22;9633;50.980;13.850;2024-03-08T07:34:50;7.40;1.00
19000;DHT22;9633;50.980;13.850;2024-03-08T07:36:23;7.50;1.00
19000;DHT22;9633;50.980;13.850;2024-03-08T07:37:55;7.40;1.00
19000;DHT22;9633;50.980;13.850;2024-03-08T07:39:28;7.40;1.00
19000;DHT22;9633;50.980;13.850;2024-03-08T07:41:00;7.30;1.00
19000;DHT22;9633;50.980;13.850;2024-03-08T07:42:36;7.00;1.00
19000;DHT22;9633;50.980;13.850;2024-03-08T07:44:09;7.20;1.00
19000;DHT22;9633;50.980;13.850;2024-03-08T07:45:42;7.20;1.00
19000;DHT22;9633;50.980;13.850;2024-03-08T07:47:14;7.30;1.00
19000;DHT22;9633;50.980;13.850;2024-03-08T07:48:50;7.50;1.00
19000;DHT22;9633;50.980;13.850;2024-03-08T07:50:23;7.80;1.00
19000;DHT22;9633;50.980;13.850;2024-03-08T07:51:56;7.70;1.00
19000;DHT22;9633;50.980;13.850;2024-03-08T07:53:29;7.70;1.00
19000;DHT22;9633;50.980;13.850;2024-03-08T07:55:03;7.60;1.00
19000;DHT22;9633;50.980;13.850;2024-03-08T07:56:35;7.40;1.00
19000;DHT22;9633;50.980;13.850;2024-03-08T07:58:09;7.50;1.00
19000;DHT22;9633;50.980;13.850;2024-03-08T07:59:42;7.40;1.00
19000;DHT22;9633;50.980;13.850;2024-03-08T08:01:17;7.20;1.00
19000;DHT22;9633;50.980;13.850;2024-03-08T08:02:50;7.20;1.00
19000;DHT22;9633;50.980;13.850;2024-03-08T08:04:24;7.20;1.00
19000;DHT22;9633;50.980;13.850;2024-03-08T08:05:56;7.30;1.00
19000;DHT22;9633;50.980;13.850;2024-03-08T08:07:30;7.50;1.00
19000;DHT22;9633;50.980;13.850;2024-03-08T08:09:02;7.30;1.00
19000;DHT22;9633;50.980;13.850;2024-03-08T08:10:35;7.30;1.00
19000;DHT22;9633;50.980;13.850;2024-03-08T08:12:08;7.10;1.00
19000;DHT22;9633;50.980;13.850;2024-03-08T08:13:43;7.00;1.00
19000;DHT22;9633;50.980;13.850;2024-03-08T08:15:15;7.10;1.00
19000;DHT22;9633;50.980;13.850;2024-03-08T08:16:49;7.40;1.00
19000;DHT22;9633;50.980;13.850;2024-03-08T08:18:24;7.40;1.00
19000;DHT22;9633;50.980;13.850;2024-03-08T08:19:58;7.50;1.00
19000;DHT22;9633;50.980;13.850;2024-03-08T08:21:31;7.50;1.00
19000;DHT22;9633;50.980;13.850;2024-03-08T08:23:04;7.70;1.00
19000;DHT22;9633;50.980;13.850;2024-03-08T08:24:37;8.00;1.00
19000;DHT22;9633;50.980;13.850;2024-03-08T08:26:10;8.50;1.00
19000;DHT22;9633;50.980;13.850;2024-03-08T08:27:43;8.80;1.00
19000;DHT22;9633;50.980;13.850;2024-03-08T08:29:15;9.00;1.00
19000;DHT22;9633;50.980;13.850;2024-03-08T08:30:48;9.20;1.00
19000;DHT22;9633;50.980;13.850;2024-03-08T08:32:20;9.30;1.00
19000;DHT22;9633;50.980;13.850;2024-03-08T08:33:53;9.20;1.00
19000;DHT22;9633;50.980;13.850;2024-03-08T08:35:31;9.20;1.00
19000;DHT22;9633;50.980;13.850;2024-03-08T08:37:04;9.10;1.00
19000;DHT22;9633;50.980;13.850;2024-03-08T08:38:38;9.00;1.00
19000;DHT22;9633;50.980;13.850;2024-03-08T08:40:11;9.00;1.00
19000;DHT22;9633;50.980;13.850;2024-03-08T08:41:47;9.20;1.00
19000;DHT22;9633;50.980;13.850;2024-03-08T08:43:19;9.40;1.00
19000;DHT22;9633;50.980;13.850;2024-03-08T08:44:55;9.40;1.00
19000;DHT22;9633;50.980;13.850;2024-03-08T08:46:39;9.60;1.00
19000;DHT22;9633;50.980;13.850;2024-03-08T08:48:13;9.80;1.00
19000;DHT22;9633;50.980;13.850;2024-03-08T08:49:46;9.70;1.00
19000;DHT22;9633;50.980;13.850;2024-03-08T08:51:19;9.70;1.00
19000;DHT22;9633;50.980;13.850;2024-03-08T08:52:52;10.00;1.00
19000;DHT22;9633;50.980;13.850;2024-03-08T08:54:25;10.10;1.00
19000;DHT22;9633;50.980;13.850;2024-03-08T08:55:59;10.10;1.00
19000;DHT22;9633;50.980;13.850;2024-03-08T08:57:33;10.20;1.00
19000;DHT22;9633;50.980;13.850;2024-03-08T08:59:07;10.10;1.00
19000;DHT22;9633;50.980;13.850;2024-03-08T09:00:40;10.30;1.00
19000;DHT22;9633;50.980;13.850;2024-03-08T09:02:12;10.40;1.00
19000;DHT22;9633;50.980;13.850;2024-03-08T09:03:49;10.20;1.00
19000;DHT22;9633;50.980;13.850;2024-03-08T09:05:21;10.30;1.00
19000;DHT22;9633;50.980;13.850;2024-03-08T09:06:57;10.40;1.00
19000;DHT22;9633;50.980;13.850;2024-03-08T09:08:30;10.30;1.00
19000;DHT22;9633;50.980;13.850;2024-03-08T09:10:05;10.20;1.00
19000;DHT22;9633;50.980;13.850;2024-03-08T09:11:48;10.30;1.00
19000;DHT22;9633;50.980;13.850;2024-03-08T09:13:22;10.70;1.00
19000;DHT22;9633;50.980;13.850;2024-03-08T09:15:04;11.00;1.00
19000;DHT22;9633;50.980;13.850;2024-03-08T09:16:37;11.20;1.00
19000;DHT22;9633;50.980;13.850;2024-03-08T09:18:10;11.30;1.00
19000;DHT22;9633;50.980;13.850;2024-03-08T09:19:42;11.30;1.00
19000;DHT22;9633;50.980;13.850;2024-03-08T09:21:15;11.40;1.00
19000;DHT22;9633;50.980;13.850;2024-03-08T09:22:48;11.50;1.00
19000;DHT22;9633;50.980;13.850;2024-03-08T09:24:21;11.80;1.00
19000;DHT22;9633;50.980;13.850;2024-03-08T09:25:53;12.10;1.00
19000;DHT22;9633;50.980;13.850;2024-03-08T09:27:27;12.20;1.00
19000;DHT22;9633;50.980;13.850;2024-03-08T09:29:00;12.10;1.00
19000;DHT22;9633;50.980;13.850;2024-03-08T09:30:33;12.10;1.00
19000;DHT22;9633;50.980;13.850;2024-03-08T09:32:06;12.30;1.00
19000;DHT22;9633;50.980;13.850;2024-03-08T09:33:39;12.40;1.00
19000;DHT22;9633;50.980;13.850;2024-03-08T09:35:12;12.30;1.00
19000;DHT22;9633;50.980;13.850;2024-03-08T09:36:44;12.00;1.00
19000;DHT22;9633;50.980;13.850;2024-03-08T09:38:19;12.10;1.00
19000;DHT22;9633;50.980;13.850;2024-03-08T09:39:52;11.90;1.00
19000;DHT22;9633;50.980;13.850;2024-03-08T09:41:25;11.70;1.00
19000;DHT22;9633;50.980;13.850;2024-03-08T09:42:57;11.80;1.00
19000;DHT22;9633;50.980;13.850;2024-03-08T09:44:30;12.00;1.00
19000;DHT22;9633;50.980;13.850;2024-03-08T09:46:03;11.90;1.00
19000;DHT22;9633;50.980;13.850;2024-03-08T09:47:39;11.90;1.00
19000;DHT22;9633;50.980;13.850;2024-03-08T09:49:12;11.80;1.00
19000;DHT22;9633;50.980;13.850;2024-03-08T09:50:45;11.80;1.00
19000;DHT22;9633;50.980;13.850;2024-03-08T09:52:18;11.90;1.00
19000;DHT22;9633;50.980;13.850;2024-03-08T09:53:52;11.90;1.00
19000;DHT22;9633;50.980;13.850;2024-03-08T09:55:26;11.80;1.00
19000;DHT22;9633;50.980;13.850;2024-03-08T09:57:04;11.50;1.00